Dearing, Georgia
Current Conditions -  °F | °C
As of 7:55 PM on Monday 26 Jan 2015 (Local Time) from KHQU Reporting Station
Clear Clear  
Wind Chill: 33°   Ceiling: Unl
Heat Index: 41°   Visibility: 10mi
Dew Point: 33°   Wind: 15mph
Humidity: 72%   Direction: 280°W
Pressure: 29.89"   Gusts: 18mph
Location:  33.41°N, 82.39°W
Report Text: KHQU 270055Z AUTO 28013G16KT 10SM CLR 05/01 A2989 RMK AO1 T00510005
Loading
Personal Weather Stations






























Interactive Weather Map New forecast layout! Learn more

10-Day Weather Forecast

Advertisements
Track Severe Weather on mobile